sensor_id;sensor_type;location;lat;lon;timestamp;P1;durP1;ratioP1;P2;durP2;ratioP2
15142;SDS011;7672;50.834;6.286;2023-07-31T00:00:15;6.43;;;3.77;;
15142;SDS011;7672;50.834;6.286;2023-07-31T00:02:42;4.67;;;3.47;;
15142;SDS011;7672;50.834;6.286;2023-07-31T00:05:09;5.50;;;3.30;;
15142;SDS011;7672;50.834;6.286;2023-07-31T00:07:36;5.07;;;3.50;;
15142;SDS011;7672;50.834;6.286;2023-07-31T00:10:03;5.80;;;3.43;;
15142;SDS011;7672;50.834;6.286;2023-07-31T00:12:31;5.70;;;3.73;;
15142;SDS011;7672;50.834;6.286;2023-07-31T00:14:59;6.73;;;3.80;;
15142;SDS011;7672;50.834;6.286;2023-07-31T00:17:26;7.87;;;3.43;;
15142;SDS011;7672;50.834;6.286;2023-07-31T00:19:53;4.70;;;3.70;;
15142;SDS011;7672;50.834;6.286;2023-07-31T00:22:20;7.13;;;3.57;;
15142;SDS011;7672;50.834;6.286;2023-07-31T00:24:47;6.90;;;3.60;;
15142;SDS011;7672;50.834;6.286;2023-07-31T00:27:14;7.00;;;3.67;;
15142;SDS011;7672;50.834;6.286;2023-07-31T00:29:42;8.37;;;3.80;;
15142;SDS011;7672;50.834;6.286;2023-07-31T00:32:10;5.93;;;3.13;;
15142;SDS011;7672;50.834;6.286;2023-07-31T00:34:37;8.67;;;3.83;;
15142;SDS011;7672;50.834;6.286;2023-07-31T00:37:04;5.60;;;3.70;;
15142;SDS011;7672;50.834;6.286;2023-07-31T00:39:33;6.57;;;3.53;;
15142;SDS011;7672;50.834;6.286;2023-07-31T00:42:01;5.93;;;3.67;;
15142;SDS011;7672;50.834;6.286;2023-07-31T00:44:28;4.33;;;3.03;;
15142;SDS011;7672;50.834;6.286;2023-07-31T00:46:55;6.93;;;3.97;;
15142;SDS011;7672;50.834;6.286;2023-07-31T00:49:25;8.33;;;3.83;;
15142;SDS011;7672;50.834;6.286;2023-07-31T00:51:54;5.07;;;3.50;;
15142;SDS011;7672;50.834;6.286;2023-07-31T00:54:24;7.67;;;3.20;;
15142;SDS011;7672;50.834;6.286;2023-07-31T00:56:52;5.50;;;3.20;;
15142;SDS011;7672;50.834;6.286;2023-07-31T00:59:21;6.00;;;3.07;;
15142;SDS011;7672;50.834;6.286;2023-07-31T01:01:48;5.63;;;3.33;;
15142;SDS011;7672;50.834;6.286;2023-07-31T01:04:16;4.33;;;2.97;;
15142;SDS011;7672;50.834;6.286;2023-07-31T01:06:48;5.03;;;3.53;;
15142;SDS011;7672;50.834;6.286;2023-07-31T01:09:44;6.83;;;3.27;;
15142;SDS011;7672;50.834;6.286;2023-07-31T01:12:27;6.07;;;3.93;;
15142;SDS011;7672;50.834;6.286;2023-07-31T01:17:33;10.80;;;3.37;;
15142;SDS011;7672;50.834;6.286;2023-07-31T01:20:02;4.80;;;3.63;;
15142;SDS011;7672;50.834;6.286;2023-07-31T01:22:51;5.63;;;3.37;;
15142;SDS011;7672;50.834;6.286;2023-07-31T01:28:46;4.87;;;3.37;;
15142;SDS011;7672;50.834;6.286;2023-07-31T01:31:30;4.70;;;3.33;;
15142;SDS011;7672;50.834;6.286;2023-07-31T01:34:00;6.93;;;3.80;;
15142;SDS011;7672;50.834;6.286;2023-07-31T01:36:29;7.93;;;3.57;;
15142;SDS011;7672;50.834;6.286;2023-07-31T01:38:59;5.90;;;3.93;;
15142;SDS011;7672;50.834;6.286;2023-07-31T01:41:27;6.80;;;3.77;;
15142;SDS011;7672;50.834;6.286;2023-07-31T01:43:54;7.17;;;4.10;;
15142;SDS011;7672;50.834;6.286;2023-07-31T01:46:22;6.13;;;3.53;;
15142;SDS011;7672;50.834;6.286;2023-07-31T01:48:50;8.23;;;3.90;;
15142;SDS011;7672;50.834;6.286;2023-07-31T01:51:18;6.60;;;4.20;;
15142;SDS011;7672;50.834;6.286;2023-07-31T01:53:45;7.10;;;3.90;;
15142;SDS011;7672;50.834;6.286;2023-07-31T01:56:12;7.47;;;3.53;;
15142;SDS011;7672;50.834;6.286;2023-07-31T01:58:39;7.87;;;4.17;;
15142;SDS011;7672;50.834;6.286;2023-07-31T02:01:06;7.70;;;3.67;;
15142;SDS011;7672;50.834;6.286;2023-07-31T02:03:33;6.47;;;3.57;;
15142;SDS011;7672;50.834;6.286;2023-07-31T02:06:01;8.77;;;4.20;;
15142;SDS011;7672;50.834;6.286;2023-07-31T02:08:28;9.20;;;4.40;;
15142;SDS011;7672;50.834;6.286;2023-07-31T02:10:55;7.37;;;3.73;;
15142;SDS011;7672;50.834;6.286;2023-07-31T02:13:22;7.73;;;3.60;;
15142;SDS011;7672;50.834;6.286;2023-07-31T02:15:49;6.97;;;3.80;;
15142;SDS011;7672;50.834;6.286;2023-07-31T02:18:17;7.67;;;3.90;;
15142;SDS011;7672;50.834;6.286;2023-07-31T02:20:48;8.30;;;3.50;;
15142;SDS011;7672;50.834;6.286;2023-07-31T02:23:17;8.27;;;4.33;;
15142;SDS011;7672;50.834;6.286;2023-07-31T02:25:45;7.20;;;3.70;;
15142;SDS011;7672;50.834;6.286;2023-07-31T02:28:14;8.43;;;4.33;;
15142;SDS011;7672;50.834;6.286;2023-07-31T02:30:43;10.13;;;3.63;;
15142;SDS011;7672;50.834;6.286;2023-07-31T02:33:12;8.13;;;3.97;;
15142;SDS011;7672;50.834;6.286;2023-07-31T02:35:41;7.63;;;3.90;;
15142;SDS011;7672;50.834;6.286;2023-07-31T02:38:08;11.10;;;4.23;;
15142;SDS011;7672;50.834;6.286;2023-07-31T02:40:35;8.93;;;4.03;;
15142;SDS011;7672;50.834;6.286;2023-07-31T02:43:02;8.90;;;4.10;;
15142;SDS011;7672;50.834;6.286;2023-07-31T02:45:29;12.27;;;4.27;;
15142;SDS011;7672;50.834;6.286;2023-07-31T02:47:57;7.23;;;3.87;;
15142;SDS011;7672;50.834;6.286;2023-07-31T02:50:24;7.50;;;4.53;;
15142;SDS011;7672;50.834;6.286;2023-07-31T02:52:51;7.47;;;4.23;;
15142;SDS011;7672;50.834;6.286;2023-07-31T02:55:18;6.57;;;3.90;;
15142;SDS011;7672;50.834;6.286;2023-07-31T02:57:45;11.67;;;4.40;;
15142;SDS011;7672;50.834;6.286;2023-07-31T03:00:12;7.77;;;4.00;;
15142;SDS011;7672;50.834;6.286;2023-07-31T03:02:39;9.50;;;4.17;;
15142;SDS011;7672;50.834;6.286;2023-07-31T03:05:06;9.10;;;4.67;;
15142;SDS011;7672;50.834;6.286;2023-07-31T03:07:34;9.27;;;4.30;;
15142;SDS011;7672;50.834;6.286;2023-07-31T03:10:01;7.17;;;4.27;;
15142;SDS011;7672;50.834;6.286;2023-07-31T03:12:28;7.97;;;4.10;;
15142;SDS011;7672;50.834;6.286;2023-07-31T03:14:55;7.93;;;4.17;;
15142;SDS011;7672;50.834;6.286;2023-07-31T03:17:22;6.73;;;4.30;;
15142;SDS011;7672;50.834;6.286;2023-07-31T03:19:49;8.50;;;4.50;;
15142;SDS011;7672;50.834;6.286;2023-07-31T03:22:16;11.07;;;4.30;;
15142;SDS011;7672;50.834;6.286;2023-07-31T03:24:44;6.80;;;4.47;;
15142;SDS011;7672;50.834;6.286;2023-07-31T03:27:11;8.77;;;4.47;;
15142;SDS011;7672;50.834;6.286;2023-07-31T03:29:38;6.63;;;4.47;;
15142;SDS011;7672;50.834;6.286;2023-07-31T03:32:05;6.97;;;4.30;;
15142;SDS011;7672;50.834;6.286;2023-07-31T03:34:32;5.93;;;3.73;;
15142;SDS011;7672;50.834;6.286;2023-07-31T03:37:01;7.73;;;4.50;;
15142;SDS011;7672;50.834;6.286;2023-07-31T03:39:29;7.73;;;4.80;;
15142;SDS011;7672;50.834;6.286;2023-07-31T03:41:56;6.67;;;4.43;;
15142;SDS011;7672;50.834;6.286;2023-07-31T03:44:23;6.73;;;4.30;;
15142;SDS011;7672;50.834;6.286;2023-07-31T03:46:50;8.87;;;4.50;;
15142;SDS011;7672;50.834;6.286;2023-07-31T03:49:18;9.10;;;4.67;;
15142;SDS011;7672;50.834;6.286;2023-07-31T03:51:45;6.47;;;4.43;;
15142;SDS011;7672;50.834;6.286;2023-07-31T03:54:12;8.17;;;4.13;;
15142;SDS011;7672;50.834;6.286;2023-07-31T03:56:40;7.13;;;4.50;;
15142;SDS011;7672;50.834;6.286;2023-07-31T03:59:08;7.73;;;4.03;;
15142;SDS011;7672;50.834;6.286;2023-07-31T04:01:35;8.60;;;4.13;;
15142;SDS011;7672;50.834;6.286;2023-07-31T04:04:02;8.13;;;4.57;;
15142;SDS011;7672;50.834;6.286;2023-07-31T04:06:29;7.23;;;4.00;;
15142;SDS011;7672;50.834;6.286;2023-07-31T04:08:56;8.10;;;4.53;;
15142;SDS011;7672;50.834;6.286;2023-07-31T04:11:23;6.83;;;4.13;;
15142;SDS011;7672;50.834;6.286;2023-07-31T04:13:51;5.00;;;3.77;;
15142;SDS011;7672;50.834;6.286;2023-07-31T04:16:18;5.67;;;3.80;;
15142;SDS011;7672;50.834;6.286;2023-07-31T04:18:45;6.93;;;3.77;;
15142;SDS011;7672;50.834;6.286;2023-07-31T04:21:12;5.87;;;3.90;;
15142;SDS011;7672;50.834;6.286;2023-07-31T04:23:39;7.27;;;4.00;;
15142;SDS011;7672;50.834;6.286;2023-07-31T04:26:06;9.83;;;3.83;;
15142;SDS011;7672;50.834;6.286;2023-07-31T04:28:33;4.23;;;3.63;;
15142;SDS011;7672;50.834;6.286;2023-07-31T04:31:00;7.67;;;4.13;;
15142;SDS011;7672;50.834;6.286;2023-07-31T04:33:28;6.60;;;3.90;;
15142;SDS011;7672;50.834;6.286;2023-07-31T04:35:55;11.80;;;4.43;;
15142;SDS011;7672;50.834;6.286;2023-07-31T04:38:22;5.43;;;3.70;;
15142;SDS011;7672;50.834;6.286;2023-07-31T04:40:49;5.10;;;3.60;;
15142;SDS011;7672;50.834;6.286;2023-07-31T04:43:16;7.57;;;3.83;;
15142;SDS011;7672;50.834;6.286;2023-07-31T04:45:47;5.57;;;3.67;;
15142;SDS011;7672;50.834;6.286;2023-07-31T04:48:14;5.03;;;3.70;;
15142;SDS011;7672;50.834;6.286;2023-07-31T04:50:41;6.40;;;3.70;;
15142;SDS011;7672;50.834;6.286;2023-07-31T04:53:09;6.57;;;4.23;;
15142;SDS011;7672;50.834;6.286;2023-07-31T04:55:36;4.57;;;3.97;;
15142;SDS011;7672;50.834;6.286;2023-07-31T04:58:03;6.07;;;4.00;;
15142;SDS011;7672;50.834;6.286;2023-07-31T05:00:30;5.03;;;3.57;;
15142;SDS011;7672;50.834;6.286;2023-07-31T05:02:57;7.23;;;3.33;;
15142;SDS011;7672;50.834;6.286;2023-07-31T05:05:24;6.43;;;4.10;;
15142;SDS011;7672;50.834;6.286;2023-07-31T05:07:51;5.40;;;3.83;;
15142;SDS011;7672;50.834;6.286;2023-07-31T05:10:18;5.57;;;3.70;;
15142;SDS011;7672;50.834;6.286;2023-07-31T05:12:45;7.40;;;3.80;;
15142;SDS011;7672;50.834;6.286;2023-07-31T05:15:12;9.33;;;3.50;;
15142;SDS011;7672;50.834;6.286;2023-07-31T05:17:42;5.23;;;3.70;;
15142;SDS011;7672;50.834;6.286;2023-07-31T05:20:09;5.87;;;3.80;;
15142;SDS011;7672;50.834;6.286;2023-07-31T05:22:39;7.43;;;3.60;;
15142;SDS011;7672;50.834;6.286;2023-07-31T05:25:06;4.97;;;3.40;;
15142;SDS011;7672;50.834;6.286;2023-07-31T05:27:34;9.30;;;4.73;;
15142;SDS011;7672;50.834;6.286;2023-07-31T05:30:02;6.47;;;3.37;;
15142;SDS011;7672;50.834;6.286;2023-07-31T05:32:30;8.23;;;3.73;;
15142;SDS011;7672;50.834;6.286;2023-07-31T05:34:57;6.80;;;3.60;;
15142;SDS011;7672;50.834;6.286;2023-07-31T05:37:24;7.83;;;4.10;;
15142;SDS011;7672;50.834;6.286;2023-07-31T05:39:52;5.73;;;3.77;;
15142;SDS011;7672;50.834;6.286;2023-07-31T05:42:19;6.60;;;3.60;;
15142;SDS011;7672;50.834;6.286;2023-07-31T05:44:46;6.13;;;4.07;;
15142;SDS011;7672;50.834;6.286;2023-07-31T05:47:13;6.00;;;3.60;;
15142;SDS011;7672;50.834;6.286;2023-07-31T05:49:40;6.73;;;3.60;;
15142;SDS011;7672;50.834;6.286;2023-07-31T05:52:07;5.57;;;3.70;;
15142;SDS011;7672;50.834;6.286;2023-07-31T05:54:34;9.13;;;3.77;;
15142;SDS011;7672;50.834;6.286;2023-07-31T05:57:02;5.40;;;3.70;;
15142;SDS011;7672;50.834;6.286;2023-07-31T05:59:29;6.13;;;3.80;;
15142;SDS011;7672;50.834;6.286;2023-07-31T06:01:59;7.90;;;4.40;;
15142;SDS011;7672;50.834;6.286;2023-07-31T06:04:26;8.77;;;4.27;;
15142;SDS011;7672;50.834;6.286;2023-07-31T06:06:53;6.10;;;3.47;;
15142;SDS011;7672;50.834;6.286;2023-07-31T06:09:20;5.97;;;3.87;;
15142;SDS011;7672;50.834;6.286;2023-07-31T06:11:48;4.87;;;3.90;;
15142;SDS011;7672;50.834;6.286;2023-07-31T06:14:15;5.77;;;4.00;;
15142;SDS011;7672;50.834;6.286;2023-07-31T06:16:42;5.93;;;3.73;;
15142;SDS011;7672;50.834;6.286;2023-07-31T06:19:10;5.43;;;3.63;;
15142;SDS011;7672;50.834;6.286;2023-07-31T06:21:38;10.07;;;3.73;;
15142;SDS011;7672;50.834;6.286;2023-07-31T06:24:05;9.13;;;4.10;;
15142;SDS011;7672;50.834;6.286;2023-07-31T06:26:32;8.87;;;3.93;;
15142;SDS011;7672;50.834;6.286;2023-07-31T06:28:59;6.87;;;3.27;;
15142;SDS011;7672;50.834;6.286;2023-07-31T06:31:26;10.37;;;3.80;;
15142;SDS011;7672;50.834;6.286;2023-07-31T06:33:54;9.37;;;4.60;;
15142;SDS011;7672;50.834;6.286;2023-07-31T06:36:21;7.53;;;3.90;;
15142;SDS011;7672;50.834;6.286;2023-07-31T06:38:48;6.77;;;3.50;;
15142;SDS011;7672;50.834;6.286;2023-07-31T06:41:15;8.57;;;3.70;;
15142;SDS011;7672;50.834;6.286;2023-07-31T06:43:42;9.40;;;4.20;;
15142;SDS011;7672;50.834;6.286;2023-07-31T06:46:09;7.00;;;3.03;;
15142;SDS011;7672;50.834;6.286;2023-07-31T06:48:37;5.77;;;3.30;;
15142;SDS011;7672;50.834;6.286;2023-07-31T06:51:04;6.37;;;3.37;;
15142;SDS011;7672;50.834;6.286;2023-07-31T06:53:31;7.53;;;4.53;;
15142;SDS011;7672;50.834;6.286;2023-07-31T06:55:58;4.40;;;3.27;;
15142;SDS011;7672;50.834;6.286;2023-07-31T06:58:25;7.53;;;3.27;;
15142;SDS011;7672;50.834;6.286;2023-07-31T07:00:52;6.13;;;3.47;;
15142;SDS011;7672;50.834;6.286;2023-07-31T07:03:19;9.47;;;3.27;;
15142;SDS011;7672;50.834;6.286;2023-07-31T07:05:46;7.33;;;3.33;;
15142;SDS011;7672;50.834;6.286;2023-07-31T07:08:14;6.03;;;3.87;;
15142;SDS011;7672;50.834;6.286;2023-07-31T07:10:41;5.63;;;3.10;;
15142;SDS011;7672;50.834;6.286;2023-07-31T07:13:08;6.40;;;3.10;;
15142;SDS011;7672;50.834;6.286;2023-07-31T07:15:36;4.60;;;2.93;;
15142;SDS011;7672;50.834;6.286;2023-07-31T07:18:03;4.40;;;3.30;;
15142;SDS011;7672;50.834;6.286;2023-07-31T07:20:30;4.60;;;3.33;;
15142;SDS011;7672;50.834;6.286;2023-07-31T07:22:57;4.63;;;3.23;;
15142;SDS011;7672;50.834;6.286;2023-07-31T07:25:24;5.50;;;3.17;;
15142;SDS011;7672;50.834;6.286;2023-07-31T07:27:51;4.67;;;3.30;;
15142;SDS011;7672;50.834;6.286;2023-07-31T07:30:18;7.10;;;2.87;;
15142;SDS011;7672;50.834;6.286;2023-07-31T07:32:46;6.70;;;3.80;;
15142;SDS011;7672;50.834;6.286;2023-07-31T07:35:13;5.47;;;3.10;;
15142;SDS011;7672;50.834;6.286;2023-07-31T07:37:40;4.77;;;3.20;;
15142;SDS011;7672;50.834;6.286;2023-07-31T07:40:07;6.50;;;3.30;;
15142;SDS011;7672;50.834;6.286;2023-07-31T07:42:35;5.80;;;3.53;;
15142;SDS011;7672;50.834;6.286;2023-07-31T07:45:03;5.70;;;3.27;;
15142;SDS011;7672;50.834;6.286;2023-07-31T07:47:30;5.83;;;3.03;;
15142;SDS011;7672;50.834;6.286;2023-07-31T07:49:57;5.47;;;3.20;;
15142;SDS011;7672;50.834;6.286;2023-07-31T07:52:25;7.63;;;3.30;;
15142;SDS011;7672;50.834;6.286;2023-07-31T07:54:52;7.20;;;3.53;;
15142;SDS011;7672;50.834;6.286;2023-07-31T07:57:19;4.70;;;3.03;;
15142;SDS011;7672;50.834;6.286;2023-07-31T07:59:46;5.93;;;3.43;;
15142;SDS011;7672;50.834;6.286;2023-07-31T08:02:13;5.50;;;3.60;;
15142;SDS011;7672;50.834;6.286;2023-07-31T08:04:40;6.07;;;3.23;;
15142;SDS011;7672;50.834;6.286;2023-07-31T08:07:07;5.80;;;3.10;;
15142;SDS011;7672;50.834;6.286;2023-07-31T08:09:34;4.53;;;3.17;;
15142;SDS011;7672;50.834;6.286;2023-07-31T08:12:01;5.20;;;3.03;;
15142;SDS011;7672;50.834;6.286;2023-07-31T08:14:29;6.43;;;3.30;;
15142;SDS011;7672;50.834;6.286;2023-07-31T08:16:58;5.45;;;3.03;;
15142;SDS011;7672;50.834;6.286;2023-07-31T08:19:26;5.72;;;2.92;;
15142;SDS011;7672;50.834;6.286;2023-07-31T08:21:54;6.80;;;2.90;;
15142;SDS011;7672;50.834;6.286;2023-07-31T08:24:24;5.25;;;3.08;;
15142;SDS011;7672;50.834;6.286;2023-07-31T08:26:51;3.97;;;3.00;;
15142;SDS011;7672;50.834;6.286;2023-07-31T08:29:18;3.50;;;2.42;;
15142;SDS011;7672;50.834;6.286;2023-07-31T08:31:45;4.13;;;3.10;;
15142;SDS011;7672;50.834;6.286;2023-07-31T08:34:12;5.93;;;3.00;;
15142;SDS011;7672;50.834;6.286;2023-07-31T08:36:39;6.47;;;3.17;;
15142;SDS011;7672;50.834;6.286;2023-07-31T08:39:07;5.00;;;2.95;;
15142;SDS011;7672;50.834;6.286;2023-07-31T08:41:37;7.32;;;3.10;;
15142;SDS011;7672;50.834;6.286;2023-07-31T08:44:06;5.10;;;3.20;;
15142;SDS011;7672;50.834;6.286;2023-07-31T08:46:34;5.45;;;2.75;;
15142;SDS011;7672;50.834;6.286;2023-07-31T08:49:03;5.57;;;3.08;;
15142;SDS011;7672;50.834;6.286;2023-07-31T08:51:34;4.65;;;3.00;;
15142;SDS011;7672;50.834;6.286;2023-07-31T08:54:03;6.30;;;3.20;;
15142;SDS011;7672;50.834;6.286;2023-07-31T08:56:32;4.03;;;2.90;;
15142;SDS011;7672;50.834;6.286;2023-07-31T08:59:04;4.50;;;2.95;;
15142;SDS011;7672;50.834;6.286;2023-07-31T09:01:33;5.82;;;3.13;;
15142;SDS011;7672;50.834;6.286;2023-07-31T09:04:06;3.33;;;2.78;;
15142;SDS011;7672;50.834;6.286;2023-07-31T09:06:36;5.68;;;2.83;;
15142;SDS011;7672;50.834;6.286;2023-07-31T09:09:06;4.50;;;3.00;;
15142;SDS011;7672;50.834;6.286;2023-07-31T09:11:33;4.93;;;3.22;;
15142;SDS011;7672;50.834;6.286;2023-07-31T09:14:00;4.07;;;2.60;;
15142;SDS011;7672;50.834;6.286;2023-07-31T09:16:34;3.97;;;3.05;;
15142;SDS011;7672;50.834;6.286;2023-07-31T09:19:02;4.75;;;3.10;;
15142;SDS011;7672;50.834;6.286;2023-07-31T09:21:29;4.85;;;3.10;;
15142;SDS011;7672;50.834;6.286;2023-07-31T09:23:56;5.80;;;3.05;;
15142;SDS011;7672;50.834;6.286;2023-07-31T09:26:31;3.72;;;3.33;;
15142;SDS011;7672;50.834;6.286;2023-07-31T09:29:04;4.32;;;2.55;;
15142;SDS011;7672;50.834;6.286;2023-07-31T09:31:41;3.85;;;3.20;;
15142;SDS011;7672;50.834;6.286;2023-07-31T09:34:10;4.47;;;2.92;;
15142;SDS011;7672;50.834;6.286;2023-07-31T09:36:41;5.47;;;3.40;;
15142;SDS011;7672;50.834;6.286;2023-07-31T09:39:16;5.95;;;3.15;;
15142;SDS011;7672;50.834;6.286;2023-07-31T09:41:45;4.20;;;3.30;;
15142;SDS011;7672;50.834;6.286;2023-07-31T09:44:36;4.00;;;2.95;;
15142;SDS011;7672;50.834;6.286;2023-07-31T09:47:20;6.18;;;3.05;;
15142;SDS011;7672;50.834;6.286;2023-07-31T09:49:52;5.07;;;3.40;;
15142;SDS011;7672;50.834;6.286;2023-07-31T09:52:19;6.25;;;3.08;;
15142;SDS011;7672;50.834;6.286;2023-07-31T09:54:46;4.57;;;3.03;;
15142;SDS011;7672;50.834;6.286;2023-07-31T09:57:13;3.85;;;2.92;;
15142;SDS011;7672;50.834;6.286;2023-07-31T09:59:44;8.02;;;3.22;;
15142;SDS011;7672;50.834;6.286;2023-07-31T10:02:14;4.85;;;2.83;;
15142;SDS011;7672;50.834;6.286;2023-07-31T10:04:50;4.43;;;2.65;;
15142;SDS011;7672;50.834;6.286;2023-07-31T10:07:25;3.97;;;2.58;;
15142;SDS011;7672;50.834;6.286;2023-07-31T10:09:59;3.47;;;2.67;;
15142;SDS011;7672;50.834;6.286;2023-07-31T10:12:30;5.03;;;2.58;;
15142;SDS011;7672;50.834;6.286;2023-07-31T10:15:01;4.28;;;2.78;;
15142;SDS011;7672;50.834;6.286;2023-07-31T10:17:30;3.92;;;2.65;;
15142;SDS011;7672;50.834;6.286;2023-07-31T10:19:59;3.55;;;2.80;;
15142;SDS011;7672;50.834;6.286;2023-07-31T10:22:31;4.35;;;2.40;;
15142;SDS011;7672;50.834;6.286;2023-07-31T10:25:03;5.25;;;2.72;;
15142;SDS011;7672;50.834;6.286;2023-07-31T10:27:33;3.55;;;2.53;;
15142;SDS011;7672;50.834;6.286;2023-07-31T10:30:04;3.55;;;2.42;;
15142;SDS011;7672;50.834;6.286;2023-07-31T10:32:36;3.72;;;2.90;;
15142;SDS011;7672;50.834;6.286;2023-07-31T10:35:07;4.18;;;2.72;;
15142;SDS011;7672;50.834;6.286;2023-07-31T10:37:37;2.58;;;2.08;;
15142;SDS011;7672;50.834;6.286;2023-07-31T10:40:07;2.63;;;2.15;;
15142;SDS011;7672;50.834;6.286;2023-07-31T10:42:51;4.03;;;2.30;;
15142;SDS011;7672;50.834;6.286;2023-07-31T10:48:12;2.15;;;1.92;;
15142;SDS011;7672;50.834;6.286;2023-07-31T10:50:48;2.75;;;2.10;;
15142;SDS011;7672;50.834;6.286;2023-07-31T10:53:25;1.98;;;1.88;;
15142;SDS011;7672;50.834;6.286;2023-07-31T10:56:00;2.28;;;1.95;;
15142;SDS011;7672;50.834;6.286;2023-07-31T10:58:32;3.47;;;2.03;;
15142;SDS011;7672;50.834;6.286;2023-07-31T11:01:00;1.88;;;1.77;;
15142;SDS011;7672;50.834;6.286;2023-07-31T11:03:48;2.47;;;1.63;;
15142;SDS011;7672;50.834;6.286;2023-07-31T11:06:19;3.00;;;1.70;;
15142;SDS011;7672;50.834;6.286;2023-07-31T11:08:47;1.80;;;1.70;;
15142;SDS011;7672;50.834;6.286;2023-07-31T11:11:17;2.30;;;1.50;;
15142;SDS011;7672;50.834;6.286;2023-07-31T11:13:50;3.83;;;1.45;;
15142;SDS011;7672;50.834;6.286;2023-07-31T11:16:23;1.63;;;1.52;;
15142;SDS011;7672;50.834;6.286;2023-07-31T11:18:52;1.77;;;1.67;;
15142;SDS011;7672;50.834;6.286;2023-07-31T11:21:22;1.75;;;1.65;;
15142;SDS011;7672;50.834;6.286;2023-07-31T11:23:52;1.65;;;1.55;;
15142;SDS011;7672;50.834;6.286;2023-07-31T11:26:24;2.13;;;1.92;;
15142;SDS011;7672;50.834;6.286;2023-07-31T11:28:51;2.92;;;1.90;;
15142;SDS011;7672;50.834;6.286;2023-07-31T11:31:19;2.10;;;1.98;;
15142;SDS011;7672;50.834;6.286;2023-07-31T11:33:46;2.00;;;1.90;;
15142;SDS011;7672;50.834;6.286;2023-07-31T11:36:14;2.60;;;2.30;;
15142;SDS011;7672;50.834;6.286;2023-07-31T11:38:47;2.63;;;2.20;;
15142;SDS011;7672;50.834;6.286;2023-07-31T11:41:15;2.67;;;2.40;;
15142;SDS011;7672;50.834;6.286;2023-07-31T11:43:44;3.00;;;2.30;;
15142;SDS011;7672;50.834;6.286;2023-07-31T11:46:14;2.97;;;2.40;;
15142;SDS011;7672;50.834;6.286;2023-07-31T11:48:41;4.53;;;3.33;;
15142;SDS011;7672;50.834;6.286;2023-07-31T11:51:10;6.05;;;2.70;;
15142;SDS011;7672;50.834;6.286;2023-07-31T11:53:44;2.50;;;2.30;;
15142;SDS011;7672;50.834;6.286;2023-07-31T11:56:17;2.95;;;2.70;;
15142;SDS011;7672;50.834;6.286;2023-07-31T11:58:47;3.13;;;2.58;;
15142;SDS011;7672;50.834;6.286;2023-07-31T12:01:19;2.90;;;2.70;;
15142;SDS011;7672;50.834;6.286;2023-07-31T12:03:49;3.17;;;2.50;;
15142;SDS011;7672;50.834;6.286;2023-07-31T12:06:18;3.50;;;2.70;;
15142;SDS011;7672;50.834;6.286;2023-07-31T12:08:48;2.90;;;2.70;;
15142;SDS011;7672;50.834;6.286;2023-07-31T12:11:15;3.33;;;2.58;;
15142;SDS011;7672;50.834;6.286;2023-07-31T12:13:44;3.65;;;2.75;;
15142;SDS011;7672;50.834;6.286;2023-07-31T12:16:11;4.57;;;2.60;;
15142;SDS011;7672;50.834;6.286;2023-07-31T12:18:38;3.15;;;2.75;;
15142;SDS011;7672;50.834;6.286;2023-07-31T12:21:08;3.95;;;2.80;;
15142;SDS011;7672;50.834;6.286;2023-07-31T12:23:38;3.22;;;2.70;;
15142;SDS011;7672;50.834;6.286;2023-07-31T12:26:09;4.97;;;3.05;;
15142;SDS011;7672;50.834;6.286;2023-07-31T12:28:49;3.25;;;2.95;;
15142;SDS011;7672;50.834;6.286;2023-07-31T12:31:20;4.43;;;2.92;;
15142;SDS011;7672;50.834;6.286;2023-07-31T12:33:49;6.32;;;2.75;;
15142;SDS011;7672;50.834;6.286;2023-07-31T12:36:18;6.43;;;2.97;;
15142;SDS011;7672;50.834;6.286;2023-07-31T12:38:52;3.72;;;3.13;;
15142;SDS011;7672;50.834;6.286;2023-07-31T12:41:22;4.82;;;3.17;;
15142;SDS011;7672;50.834;6.286;2023-07-31T12:43:49;3.88;;;3.25;;
15142;SDS011;7672;50.834;6.286;2023-07-31T12:46:16;3.47;;;3.05;;
15142;SDS011;7672;50.834;6.286;2023-07-31T12:48:43;4.53;;;2.80;;
15142;SDS011;7672;50.834;6.286;2023-07-31T12:51:11;3.10;;;2.80;;
15142;SDS011;7672;50.834;6.286;2023-07-31T12:53:38;3.25;;;2.78;;
15142;SDS011;7672;50.834;6.286;2023-07-31T12:56:05;3.28;;;2.95;;
15142;SDS011;7672;50.834;6.286;2023-07-31T12:58:32;4.32;;;3.00;;
15142;SDS011;7672;50.834;6.286;2023-07-31T13:00:59;2.85;;;2.58;;
15142;SDS011;7672;50.834;6.286;2023-07-31T13:03:27;4.18;;;2.72;;
15142;SDS011;7672;50.834;6.286;2023-07-31T13:05:54;5.70;;;3.08;;
15142;SDS011;7672;50.834;6.286;2023-07-31T13:08:21;3.65;;;2.88;;
15142;SDS011;7672;50.834;6.286;2023-07-31T13:10:49;2.67;;;2.47;;
15142;SDS011;7672;50.834;6.286;2023-07-31T13:13:16;4.57;;;2.90;;
15142;SDS011;7672;50.834;6.286;2023-07-31T13:15:43;3.65;;;3.35;;
15142;SDS011;7672;50.834;6.286;2023-07-31T13:18:11;3.03;;;2.30;;
15142;SDS011;7672;50.834;6.286;2023-07-31T13:20:38;2.80;;;2.60;;
15142;SDS011;7672;50.834;6.286;2023-07-31T13:23:05;2.65;;;2.45;;
15142;SDS011;7672;50.834;6.286;2023-07-31T13:25:32;2.80;;;2.40;;
15142;SDS011;7672;50.834;6.286;2023-07-31T13:27:59;3.78;;;2.83;;
15142;SDS011;7672;50.834;6.286;2023-07-31T13:30:29;4.05;;;3.03;;
15142;SDS011;7672;50.834;6.286;2023-07-31T13:32:56;4.07;;;2.70;;
15142;SDS011;7672;50.834;6.286;2023-07-31T13:35:23;4.10;;;2.90;;
15142;SDS011;7672;50.834;6.286;2023-07-31T13:37:50;3.47;;;2.90;;
15142;SDS011;7672;50.834;6.286;2023-07-31T13:40:17;3.33;;;3.13;;
15142;SDS011;7672;50.834;6.286;2023-07-31T13:42:44;4.13;;;3.63;;
15142;SDS011;7672;50.834;6.286;2023-07-31T13:45:13;5.28;;;3.65;;
15142;SDS011;7672;50.834;6.286;2023-07-31T13:47:40;4.55;;;4.15;;
15142;SDS011;7672;50.834;6.286;2023-07-31T13:50:08;4.22;;;3.83;;
15142;SDS011;7672;50.834;6.286;2023-07-31T13:52:36;4.05;;;3.75;;
15142;SDS011;7672;50.834;6.286;2023-07-31T13:55:03;6.50;;;3.72;;
15142;SDS011;7672;50.834;6.286;2023-07-31T13:57:30;6.18;;;4.07;;
15142;SDS011;7672;50.834;6.286;2023-07-31T13:59:57;5.68;;;3.90;;
15142;SDS011;7672;50.834;6.286;2023-07-31T14:02:24;5.90;;;3.75;;
15142;SDS011;7672;50.834;6.286;2023-07-31T14:04:51;4.10;;;3.70;;
15142;SDS011;7672;50.834;6.286;2023-07-31T14:07:18;4.10;;;3.75;;
15142;SDS011;7672;50.834;6.286;2023-07-31T14:09:45;4.28;;;3.70;;
15142;SDS011;7672;50.834;6.286;2023-07-31T14:12:12;4.45;;;4.05;;
15142;SDS011;7672;50.834;6.286;2023-07-31T14:14:50;4.63;;;4.15;;
15142;SDS011;7672;50.834;6.286;2023-07-31T14:17:17;4.63;;;4.18;;
15142;SDS011;7672;50.834;6.286;2023-07-31T14:19:44;7.20;;;4.00;;
15142;SDS011;7672;50.834;6.286;2023-07-31T14:22:11;4.47;;;4.07;;
15142;SDS011;7672;50.834;6.286;2023-07-31T14:24:39;5.10;;;3.75;;
15142;SDS011;7672;50.834;6.286;2023-07-31T14:27:06;4.40;;;4.10;;
15142;SDS011;7672;50.834;6.286;2023-07-31T14:29:33;4.22;;;3.83;;
15142;SDS011;7672;50.834;6.286;2023-07-31T14:32:00;5.75;;;4.00;;
15142;SDS011;7672;50.834;6.286;2023-07-31T14:34:27;5.55;;;3.95;;
15142;SDS011;7672;50.834;6.286;2023-07-31T14:36:54;4.28;;;3.88;;
15142;SDS011;7672;50.834;6.286;2023-07-31T14:39:21;5.28;;;4.28;;
15142;SDS011;7672;50.834;6.286;2023-07-31T14:41:48;5.95;;;4.40;;
15142;SDS011;7672;50.834;6.286;2023-07-31T14:44:15;4.40;;;3.90;;
15142;SDS011;7672;50.834;6.286;2023-07-31T14:46:42;5.72;;;3.78;;
15142;SDS011;7672;50.834;6.286;2023-07-31T14:49:09;6.57;;;4.28;;
15142;SDS011;7672;50.834;6.286;2023-07-31T14:51:36;4.95;;;4.40;;
15142;SDS011;7672;50.834;6.286;2023-07-31T14:54:04;5.07;;;4.25;;
15142;SDS011;7672;50.834;6.286;2023-07-31T14:56:31;5.28;;;4.25;;
15142;SDS011;7672;50.834;6.286;2023-07-31T14:58:58;5.88;;;4.10;;
15142;SDS011;7672;50.834;6.286;2023-07-31T15:01:25;7.68;;;4.63;;
15142;SDS011;7672;50.834;6.286;2023-07-31T15:03:52;5.20;;;4.40;;
15142;SDS011;7672;50.834;6.286;2023-07-31T15:06:20;5.75;;;4.75;;
15142;SDS011;7672;50.834;6.286;2023-07-31T15:08:47;4.75;;;4.35;;
15142;SDS011;7672;50.834;6.286;2023-07-31T15:11:14;4.70;;;4.25;;
15142;SDS011;7672;50.834;6.286;2023-07-31T15:13:42;5.38;;;4.40;;
15142;SDS011;7672;50.834;6.286;2023-07-31T15:16:10;6.43;;;4.38;;